sensor_id;sensor_type;location;lat;lon;timestamp;P1;durP1;ratioP1;P2;durP2;ratioP2
59974;SDS011;62136;-35.664;-63.766;2024-02-04T00:00:05;1.88;;;0.70;;
59974;SDS011;62136;-35.664;-63.766;2024-02-04T00:02:32;2.50;;;0.98;;
59974;SDS011;62136;-35.664;-63.766;2024-02-04T00:04:59;3.85;;;1.10;;
59974;SDS011;62136;-35.664;-63.766;2024-02-04T00:07:26;3.55;;;0.98;;
59974;SDS011;62136;-35.664;-63.766;2024-02-04T00:09:53;2.22;;;1.00;;
59974;SDS011;62136;-35.664;-63.766;2024-02-04T00:12:21;3.10;;;0.90;;
59974;SDS011;62136;-35.664;-63.766;2024-02-04T00:14:48;1.50;;;1.00;;
59974;SDS011;62136;-35.664;-63.766;2024-02-04T00:17:18;4.15;;;1.00;;
59974;SDS011;62136;-35.664;-63.766;2024-02-04T00:19:45;3.08;;;1.00;;
59974;SDS011;62136;-35.664;-63.766;2024-02-04T00:22:12;4.30;;;1.40;;
59974;SDS011;62136;-35.664;-63.766;2024-02-04T00:24:39;4.40;;;1.20;;
59974;SDS011;62136;-35.664;-63.766;2024-02-04T00:27:06;4.15;;;0.90;;
59974;SDS011;62136;-35.664;-63.766;2024-02-04T00:29:33;3.10;;;1.20;;
59974;SDS011;62136;-35.664;-63.766;2024-02-04T00:32:00;4.10;;;1.08;;
59974;SDS011;62136;-35.664;-63.766;2024-02-04T00:34:27;2.95;;;1.00;;
59974;SDS011;62136;-35.664;-63.766;2024-02-04T00:36:54;3.75;;;1.00;;
59974;SDS011;62136;-35.664;-63.766;2024-02-04T00:39:21;2.05;;;0.98;;
59974;SDS011;62136;-35.664;-63.766;2024-02-04T00:41:48;4.43;;;1.13;;
59974;SDS011;62136;-35.664;-63.766;2024-02-04T00:44:15;4.28;;;1.02;;
59974;SDS011;62136;-35.664;-63.766;2024-02-04T00:46:42;4.60;;;1.20;;
59974;SDS011;62136;-35.664;-63.766;2024-02-04T00:49:10;5.78;;;1.48;;
59974;SDS011;62136;-35.664;-63.766;2024-02-04T00:51:36;4.13;;;1.20;;
59974;SDS011;62136;-35.664;-63.766;2024-02-04T00:54:03;2.60;;;1.10;;
59974;SDS011;62136;-35.664;-63.766;2024-02-04T00:56:30;4.30;;;1.27;;
59974;SDS011;62136;-35.664;-63.766;2024-02-04T00:58:58;2.80;;;1.20;;
59974;SDS011;62136;-35.664;-63.766;2024-02-04T01:01:25;4.80;;;1.80;;
59974;SDS011;62136;-35.664;-63.766;2024-02-04T01:03:52;3.53;;;1.23;;
59974;SDS011;62136;-35.664;-63.766;2024-02-04T01:06:19;4.70;;;1.42;;
59974;SDS011;62136;-35.664;-63.766;2024-02-04T01:08:46;6.25;;;1.80;;
59974;SDS011;62136;-35.664;-63.766;2024-02-04T01:11:13;3.60;;;1.27;;
59974;SDS011;62136;-35.664;-63.766;2024-02-04T01:13:40;4.95;;;1.73;;
59974;SDS011;62136;-35.664;-63.766;2024-02-04T01:16:07;7.32;;;1.70;;
59974;SDS011;62136;-35.664;-63.766;2024-02-04T01:18:34;6.00;;;1.83;;
59974;SDS011;62136;-35.664;-63.766;2024-02-04T01:21:01;6.70;;;1.70;;
59974;SDS011;62136;-35.664;-63.766;2024-02-04T01:23:28;7.00;;;1.98;;
59974;SDS011;62136;-35.664;-63.766;2024-02-04T01:25:55;5.28;;;1.70;;
59974;SDS011;62136;-35.664;-63.766;2024-02-04T01:28:22;7.13;;;1.98;;
59974;SDS011;62136;-35.664;-63.766;2024-02-04T01:30:49;6.00;;;2.00;;
59974;SDS011;62136;-35.664;-63.766;2024-02-04T01:33:15;7.20;;;1.38;;
59974;SDS011;62136;-35.664;-63.766;2024-02-04T01:35:42;5.70;;;1.85;;
59974;SDS011;62136;-35.664;-63.766;2024-02-04T01:38:09;5.97;;;1.92;;
59974;SDS011;62136;-35.664;-63.766;2024-02-04T01:40:36;6.13;;;1.98;;
59974;SDS011;62136;-35.664;-63.766;2024-02-04T01:43:03;7.10;;;1.92;;
59974;SDS011;62136;-35.664;-63.766;2024-02-04T01:45:31;6.03;;;1.75;;
59974;SDS011;62136;-35.664;-63.766;2024-02-04T01:47:58;5.43;;;1.63;;
59974;SDS011;62136;-35.664;-63.766;2024-02-04T01:50:25;6.05;;;2.03;;
59974;SDS011;62136;-35.664;-63.766;2024-02-04T01:52:52;6.53;;;1.92;;
59974;SDS011;62136;-35.664;-63.766;2024-02-04T01:55:19;7.85;;;2.10;;
59974;SDS011;62136;-35.664;-63.766;2024-02-04T01:57:47;6.35;;;2.17;;
59974;SDS011;62136;-35.664;-63.766;2024-02-04T02:00:20;6.82;;;2.20;;
59974;SDS011;62136;-35.664;-63.766;2024-02-04T02:02:48;7.18;;;1.88;;
59974;SDS011;62136;-35.664;-63.766;2024-02-04T02:05:18;5.47;;;1.73;;
59974;SDS011;62136;-35.664;-63.766;2024-02-04T02:07:45;6.40;;;1.80;;
59974;SDS011;62136;-35.664;-63.766;2024-02-04T02:10:17;5.43;;;1.90;;
59974;SDS011;62136;-35.664;-63.766;2024-02-04T02:13:01;4.18;;;1.80;;
59974;SDS011;62136;-35.664;-63.766;2024-02-04T02:16:11;5.28;;;1.95;;
59974;SDS011;62136;-35.664;-63.766;2024-02-04T02:18:54;6.88;;;1.85;;
59974;SDS011;62136;-35.664;-63.766;2024-02-04T02:21:56;5.85;;;2.15;;
59974;SDS011;62136;-35.664;-63.766;2024-02-04T02:24:53;4.75;;;1.67;;
59974;SDS011;62136;-35.664;-63.766;2024-02-04T02:27:24;5.03;;;1.90;;
59974;SDS011;62136;-35.664;-63.766;2024-02-04T02:29:53;5.13;;;1.85;;
59974;SDS011;62136;-35.664;-63.766;2024-02-04T02:32:20;8.32;;;1.90;;
59974;SDS011;62136;-35.664;-63.766;2024-02-04T02:34:48;4.57;;;2.00;;
59974;SDS011;62136;-35.664;-63.766;2024-02-04T02:37:33;4.88;;;1.67;;
59974;SDS011;62136;-35.664;-63.766;2024-02-04T02:40:14;8.55;;;1.90;;
59974;SDS011;62136;-35.664;-63.766;2024-02-04T02:45:11;7.07;;;2.45;;
59974;SDS011;62136;-35.664;-63.766;2024-02-04T02:47:39;6.72;;;1.92;;
59974;SDS011;62136;-35.664;-63.766;2024-02-04T02:50:08;6.10;;;1.60;;
59974;SDS011;62136;-35.664;-63.766;2024-02-04T02:52:35;6.85;;;1.85;;
59974;SDS011;62136;-35.664;-63.766;2024-02-04T02:55:02;5.50;;;2.10;;
59974;SDS011;62136;-35.664;-63.766;2024-02-04T02:57:30;11.57;;;2.65;;
59974;SDS011;62136;-35.664;-63.766;2024-02-04T02:59:57;4.43;;;2.15;;
59974;SDS011;62136;-35.664;-63.766;2024-02-04T03:02:24;5.82;;;1.70;;
59974;SDS011;62136;-35.664;-63.766;2024-02-04T03:04:51;10.13;;;2.15;;
59974;SDS011;62136;-35.664;-63.766;2024-02-04T03:07:17;6.15;;;1.80;;
59974;SDS011;62136;-35.664;-63.766;2024-02-04T03:09:45;7.28;;;2.05;;
59974;SDS011;62136;-35.664;-63.766;2024-02-04T03:12:12;6.45;;;1.90;;
59974;SDS011;62136;-35.664;-63.766;2024-02-04T03:14:39;5.50;;;2.35;;
59974;SDS011;62136;-35.664;-63.766;2024-02-04T03:17:06;7.05;;;1.95;;
59974;SDS011;62136;-35.664;-63.766;2024-02-04T03:19:33;7.85;;;1.98;;
59974;SDS011;62136;-35.664;-63.766;2024-02-04T03:22:00;10.75;;;2.55;;
59974;SDS011;62136;-35.664;-63.766;2024-02-04T03:24:27;7.07;;;1.77;;
59974;SDS011;62136;-35.664;-63.766;2024-02-04T03:26:54;9.65;;;2.30;;
59974;SDS011;62136;-35.664;-63.766;2024-02-04T03:29:20;6.32;;;2.08;;
59974;SDS011;62136;-35.664;-63.766;2024-02-04T03:31:48;5.13;;;1.55;;
59974;SDS011;62136;-35.664;-63.766;2024-02-04T03:34:15;8.88;;;2.20;;
59974;SDS011;62136;-35.664;-63.766;2024-02-04T03:36:42;9.50;;;2.15;;
59974;SDS011;62136;-35.664;-63.766;2024-02-04T03:39:09;4.88;;;1.85;;
59974;SDS011;62136;-35.664;-63.766;2024-02-04T03:41:36;7.63;;;1.98;;
59974;SDS011;62136;-35.664;-63.766;2024-02-04T03:44:03;6.32;;;2.20;;
59974;SDS011;62136;-35.664;-63.766;2024-02-04T03:46:30;10.68;;;2.75;;
59974;SDS011;62136;-35.664;-63.766;2024-02-04T03:48:57;7.80;;;2.20;;
59974;SDS011;62136;-35.664;-63.766;2024-02-04T03:51:24;7.93;;;1.95;;
59974;SDS011;62136;-35.664;-63.766;2024-02-04T03:53:51;9.35;;;2.17;;
59974;SDS011;62136;-35.664;-63.766;2024-02-04T03:56:18;9.38;;;2.25;;
59974;SDS011;62136;-35.664;-63.766;2024-02-04T03:58:45;11.80;;;2.53;;
59974;SDS011;62136;-35.664;-63.766;2024-02-04T04:01:12;6.22;;;2.10;;
59974;SDS011;62136;-35.664;-63.766;2024-02-04T04:03:40;7.32;;;2.05;;
59974;SDS011;62136;-35.664;-63.766;2024-02-04T04:06:10;6.45;;;2.33;;
59974;SDS011;62136;-35.664;-63.766;2024-02-04T04:08:38;7.40;;;2.63;;
59974;SDS011;62136;-35.664;-63.766;2024-02-04T04:11:05;6.22;;;2.25;;
59974;SDS011;62136;-35.664;-63.766;2024-02-04T04:13:36;9.43;;;2.80;;
59974;SDS011;62136;-35.664;-63.766;2024-02-04T04:16:03;9.05;;;2.45;;
59974;SDS011;62136;-35.664;-63.766;2024-02-04T04:18:31;5.85;;;2.17;;
59974;SDS011;62136;-35.664;-63.766;2024-02-04T04:20:58;9.80;;;2.55;;
59974;SDS011;62136;-35.664;-63.766;2024-02-04T04:23:26;6.80;;;2.33;;
59974;SDS011;62136;-35.664;-63.766;2024-02-04T04:25:53;7.93;;;2.40;;
59974;SDS011;62136;-35.664;-63.766;2024-02-04T04:28:20;9.23;;;2.33;;
59974;SDS011;62136;-35.664;-63.766;2024-02-04T04:30:47;11.77;;;2.72;;
59974;SDS011;62136;-35.664;-63.766;2024-02-04T04:33:14;6.53;;;2.13;;
59974;SDS011;62136;-35.664;-63.766;2024-02-04T04:35:41;9.23;;;2.20;;
59974;SDS011;62136;-35.664;-63.766;2024-02-04T04:38:07;6.38;;;2.45;;
59974;SDS011;62136;-35.664;-63.766;2024-02-04T04:40:34;6.95;;;1.77;;
59974;SDS011;62136;-35.664;-63.766;2024-02-04T04:43:01;6.15;;;2.40;;
59974;SDS011;62136;-35.664;-63.766;2024-02-04T04:45:28;7.53;;;2.67;;
59974;SDS011;62136;-35.664;-63.766;2024-02-04T04:47:55;8.55;;;2.13;;
59974;SDS011;62136;-35.664;-63.766;2024-02-04T04:50:22;10.60;;;2.45;;
59974;SDS011;62136;-35.664;-63.766;2024-02-04T04:52:49;7.50;;;2.17;;
59974;SDS011;62136;-35.664;-63.766;2024-02-04T04:55:16;9.07;;;2.25;;
59974;SDS011;62136;-35.664;-63.766;2024-02-04T04:57:44;7.78;;;2.08;;
59974;SDS011;62136;-35.664;-63.766;2024-02-04T05:00:11;7.20;;;2.03;;
59974;SDS011;62136;-35.664;-63.766;2024-02-04T05:02:42;7.75;;;2.30;;
59974;SDS011;62136;-35.664;-63.766;2024-02-04T05:05:12;5.65;;;2.05;;
59974;SDS011;62136;-35.664;-63.766;2024-02-04T05:07:39;6.72;;;2.08;;
59974;SDS011;62136;-35.664;-63.766;2024-02-04T05:10:07;8.82;;;2.40;;
59974;SDS011;62136;-35.664;-63.766;2024-02-04T05:12:34;10.30;;;2.60;;
59974;SDS011;62136;-35.664;-63.766;2024-02-04T05:15:02;10.65;;;2.10;;
59974;SDS011;62136;-35.664;-63.766;2024-02-04T05:17:30;7.78;;;2.05;;
59974;SDS011;62136;-35.664;-63.766;2024-02-04T05:19:58;7.85;;;2.50;;
59974;SDS011;62136;-35.664;-63.766;2024-02-04T05:22:25;10.52;;;2.65;;
59974;SDS011;62136;-35.664;-63.766;2024-02-04T05:24:52;10.02;;;2.30;;
59974;SDS011;62136;-35.664;-63.766;2024-02-04T05:27:20;6.82;;;1.98;;
59974;SDS011;62136;-35.664;-63.766;2024-02-04T05:29:46;10.25;;;2.65;;
59974;SDS011;62136;-35.664;-63.766;2024-02-04T05:32:13;5.45;;;1.92;;
59974;SDS011;62136;-35.664;-63.766;2024-02-04T05:34:40;11.00;;;2.85;;
59974;SDS011;62136;-35.664;-63.766;2024-02-04T05:37:07;10.85;;;2.60;;
59974;SDS011;62136;-35.664;-63.766;2024-02-04T05:39:34;7.40;;;2.47;;
59974;SDS011;62136;-35.664;-63.766;2024-02-04T05:42:01;7.20;;;2.10;;
59974;SDS011;62136;-35.664;-63.766;2024-02-04T05:44:28;6.57;;;2.00;;
59974;SDS011;62136;-35.664;-63.766;2024-02-04T05:46:55;8.30;;;2.33;;
59974;SDS011;62136;-35.664;-63.766;2024-02-04T05:49:22;10.32;;;2.10;;
59974;SDS011;62136;-35.664;-63.766;2024-02-04T05:51:49;6.82;;;1.98;;
59974;SDS011;62136;-35.664;-63.766;2024-02-04T05:54:16;9.15;;;2.10;;
59974;SDS011;62136;-35.664;-63.766;2024-02-04T05:56:43;9.80;;;2.58;;
59974;SDS011;62136;-35.664;-63.766;2024-02-04T05:59:10;7.07;;;2.00;;
59974;SDS011;62136;-35.664;-63.766;2024-02-04T06:01:37;9.60;;;2.33;;
59974;SDS011;62136;-35.664;-63.766;2024-02-04T06:04:04;5.97;;;2.08;;
59974;SDS011;62136;-35.664;-63.766;2024-02-04T06:06:31;6.45;;;2.28;;
59974;SDS011;62136;-35.664;-63.766;2024-02-04T06:08:58;7.20;;;2.17;;
59974;SDS011;62136;-35.664;-63.766;2024-02-04T06:11:25;6.85;;;1.95;;
59974;SDS011;62136;-35.664;-63.766;2024-02-04T06:13:52;5.88;;;1.98;;
59974;SDS011;62136;-35.664;-63.766;2024-02-04T06:16:19;10.40;;;2.25;;
59974;SDS011;62136;-35.664;-63.766;2024-02-04T06:18:46;6.35;;;2.03;;
59974;SDS011;62136;-35.664;-63.766;2024-02-04T06:21:13;6.28;;;2.30;;
59974;SDS011;62136;-35.664;-63.766;2024-02-04T06:23:40;7.00;;;2.00;;
59974;SDS011;62136;-35.664;-63.766;2024-02-04T06:26:07;10.85;;;2.30;;
59974;SDS011;62136;-35.664;-63.766;2024-02-04T06:28:34;8.23;;;2.33;;
59974;SDS011;62136;-35.664;-63.766;2024-02-04T06:31:01;4.25;;;1.80;;
59974;SDS011;62136;-35.664;-63.766;2024-02-04T06:33:28;7.43;;;2.00;;
59974;SDS011;62136;-35.664;-63.766;2024-02-04T06:35:55;8.93;;;2.38;;
59974;SDS011;62136;-35.664;-63.766;2024-02-04T06:38:22;5.70;;;1.95;;
59974;SDS011;62136;-35.664;-63.766;2024-02-04T06:40:49;8.57;;;2.40;;
59974;SDS011;62136;-35.664;-63.766;2024-02-04T06:43:16;7.65;;;2.03;;
59974;SDS011;62136;-35.664;-63.766;2024-02-04T06:45:43;7.97;;;2.50;;
59974;SDS011;62136;-35.664;-63.766;2024-02-04T06:48:11;7.88;;;2.13;;
59974;SDS011;62136;-35.664;-63.766;2024-02-04T06:50:38;9.02;;;2.15;;
59974;SDS011;62136;-35.664;-63.766;2024-02-04T06:53:05;8.75;;;2.10;;
59974;SDS011;62136;-35.664;-63.766;2024-02-04T06:55:32;5.90;;;1.98;;
59974;SDS011;62136;-35.664;-63.766;2024-02-04T06:57:59;9.50;;;2.10;;
59974;SDS011;62136;-35.664;-63.766;2024-02-04T07:00:26;6.32;;;2.10;;
59974;SDS011;62136;-35.664;-63.766;2024-02-04T07:02:53;7.93;;;2.35;;
59974;SDS011;62136;-35.664;-63.766;2024-02-04T07:05:20;6.13;;;1.80;;
59974;SDS011;62136;-35.664;-63.766;2024-02-04T07:07:47;9.55;;;2.47;;
59974;SDS011;62136;-35.664;-63.766;2024-02-04T07:10:15;9.00;;;2.13;;
59974;SDS011;62136;-35.664;-63.766;2024-02-04T07:12:43;8.20;;;2.00;;
59974;SDS011;62136;-35.664;-63.766;2024-02-04T07:15:10;6.13;;;2.10;;
59974;SDS011;62136;-35.664;-63.766;2024-02-04T07:17:37;8.13;;;2.30;;
59974;SDS011;62136;-35.664;-63.766;2024-02-04T07:20:04;9.07;;;2.03;;
59974;SDS011;62136;-35.664;-63.766;2024-02-04T07:26:10;8.60;;;2.10;;
59974;SDS011;62136;-35.664;-63.766;2024-02-04T07:28:49;8.32;;;2.30;;
59974;SDS011;62136;-35.664;-63.766;2024-02-04T07:31:16;7.50;;;2.15;;
59974;SDS011;62136;-35.664;-63.766;2024-02-04T07:33:44;6.13;;;2.05;;
59974;SDS011;62136;-35.664;-63.766;2024-02-04T07:36:11;6.50;;;2.35;;
59974;SDS011;62136;-35.664;-63.766;2024-02-04T07:38:38;8.25;;;2.50;;
59974;SDS011;62136;-35.664;-63.766;2024-02-04T07:41:04;6.10;;;1.90;;
59974;SDS011;62136;-35.664;-63.766;2024-02-04T07:43:31;5.65;;;2.13;;
59974;SDS011;62136;-35.664;-63.766;2024-02-04T07:45:58;5.18;;;1.98;;
59974;SDS011;62136;-35.664;-63.766;2024-02-04T07:48:26;8.52;;;1.80;;
59974;SDS011;62136;-35.664;-63.766;2024-02-04T07:50:53;6.68;;;1.83;;
59974;SDS011;62136;-35.664;-63.766;2024-02-04T07:53:20;9.70;;;2.42;;
59974;SDS011;62136;-35.664;-63.766;2024-02-04T07:55:48;4.07;;;1.75;;
59974;SDS011;62136;-35.664;-63.766;2024-02-04T07:58:15;7.22;;;1.85;;
59974;SDS011;62136;-35.664;-63.766;2024-02-04T08:00:42;8.18;;;2.20;;
59974;SDS011;62136;-35.664;-63.766;2024-02-04T08:03:09;6.57;;;1.70;;
59974;SDS011;62136;-35.664;-63.766;2024-02-04T08:05:36;6.18;;;1.80;;
59974;SDS011;62136;-35.664;-63.766;2024-02-04T08:08:03;8.05;;;2.25;;
59974;SDS011;62136;-35.664;-63.766;2024-02-04T08:10:30;7.05;;;1.98;;
59974;SDS011;62136;-35.664;-63.766;2024-02-04T08:12:57;5.10;;;2.00;;
59974;SDS011;62136;-35.664;-63.766;2024-02-04T08:15:24;5.78;;;2.00;;
59974;SDS011;62136;-35.664;-63.766;2024-02-04T08:17:51;6.65;;;1.80;;
59974;SDS011;62136;-35.664;-63.766;2024-02-04T08:20:18;8.00;;;1.90;;
59974;SDS011;62136;-35.664;-63.766;2024-02-04T08:22:47;6.60;;;2.10;;
59974;SDS011;62136;-35.664;-63.766;2024-02-04T08:25:14;7.60;;;1.98;;
59974;SDS011;62136;-35.664;-63.766;2024-02-04T08:27:41;7.53;;;1.83;;
59974;SDS011;62136;-35.664;-63.766;2024-02-04T08:30:09;6.35;;;1.60;;
59974;SDS011;62136;-35.664;-63.766;2024-02-04T08:32:37;6.63;;;2.22;;
59974;SDS011;62136;-35.664;-63.766;2024-02-04T08:35:04;5.75;;;1.63;;
59974;SDS011;62136;-35.664;-63.766;2024-02-04T08:37:32;6.57;;;1.75;;
59974;SDS011;62136;-35.664;-63.766;2024-02-04T08:40:01;6.25;;;2.00;;
59974;SDS011;62136;-35.664;-63.766;2024-02-04T08:42:28;5.60;;;1.60;;
59974;SDS011;62136;-35.664;-63.766;2024-02-04T08:44:55;7.60;;;2.00;;
59974;SDS011;62136;-35.664;-63.766;2024-02-04T08:47:22;3.83;;;1.67;;
59974;SDS011;62136;-35.664;-63.766;2024-02-04T08:49:49;7.97;;;1.80;;
59974;SDS011;62136;-35.664;-63.766;2024-02-04T08:52:16;5.32;;;1.73;;
59974;SDS011;62136;-35.664;-63.766;2024-02-04T08:54:43;6.10;;;2.25;;
59974;SDS011;62136;-35.664;-63.766;2024-02-04T08:57:10;4.97;;;1.90;;
59974;SDS011;62136;-35.664;-63.766;2024-02-04T08:59:37;4.93;;;1.52;;
59974;SDS011;62136;-35.664;-63.766;2024-02-04T09:02:04;6.38;;;1.60;;
59974;SDS011;62136;-35.664;-63.766;2024-02-04T09:04:31;4.60;;;1.77;;
59974;SDS011;62136;-35.664;-63.766;2024-02-04T09:07:01;5.40;;;1.77;;
59974;SDS011;62136;-35.664;-63.766;2024-02-04T09:09:28;5.80;;;1.70;;
59974;SDS011;62136;-35.664;-63.766;2024-02-04T09:11:55;7.63;;;1.95;;
59974;SDS011;62136;-35.664;-63.766;2024-02-04T09:14:22;4.25;;;1.50;;
59974;SDS011;62136;-35.664;-63.766;2024-02-04T09:16:49;5.95;;;1.80;;
59974;SDS011;62136;-35.664;-63.766;2024-02-04T09:19:16;5.35;;;1.77;;
59974;SDS011;62136;-35.664;-63.766;2024-02-04T09:21:43;5.68;;;1.75;;
59974;SDS011;62136;-35.664;-63.766;2024-02-04T09:24:10;5.13;;;1.60;;
59974;SDS011;62136;-35.664;-63.766;2024-02-04T09:26:37;5.28;;;1.77;;
59974;SDS011;62136;-35.664;-63.766;2024-02-04T09:29:04;5.28;;;1.48;;
59974;SDS011;62136;-35.664;-63.766;2024-02-04T09:31:32;5.85;;;1.95;;
59974;SDS011;62136;-35.664;-63.766;2024-02-04T09:33:59;3.58;;;1.60;;
59974;SDS011;62136;-35.664;-63.766;2024-02-04T09:36:26;5.35;;;2.30;;
59974;SDS011;62136;-35.664;-63.766;2024-02-04T09:38:53;6.82;;;1.60;;
59974;SDS011;62136;-35.664;-63.766;2024-02-04T09:41:21;4.32;;;1.65;;
59974;SDS011;62136;-35.664;-63.766;2024-02-04T09:43:52;6.53;;;1.73;;
59974;SDS011;62136;-35.664;-63.766;2024-02-04T09:46:20;4.25;;;1.60;;
59974;SDS011;62136;-35.664;-63.766;2024-02-04T09:48:47;3.53;;;1.48;;
59974;SDS011;62136;-35.664;-63.766;2024-02-04T09:51:19;5.13;;;1.40;;
59974;SDS011;62136;-35.664;-63.766;2024-02-04T09:53:46;7.00;;;2.13;;
59974;SDS011;62136;-35.664;-63.766;2024-02-04T09:56:18;6.43;;;1.90;;
59974;SDS011;62136;-35.664;-63.766;2024-02-04T09:58:48;7.40;;;2.03;;
59974;SDS011;62136;-35.664;-63.766;2024-02-04T10:01:18;4.68;;;1.50;;
59974;SDS011;62136;-35.664;-63.766;2024-02-04T10:03:48;6.03;;;2.08;;
59974;SDS011;62136;-35.664;-63.766;2024-02-04T10:06:15;7.70;;;1.80;;
59974;SDS011;62136;-35.664;-63.766;2024-02-04T10:08:42;8.90;;;1.77;;
59974;SDS011;62136;-35.664;-63.766;2024-02-04T10:11:10;3.72;;;1.63;;
59974;SDS011;62136;-35.664;-63.766;2024-02-04T10:13:47;4.57;;;1.60;;
59974;SDS011;62136;-35.664;-63.766;2024-02-04T10:16:15;5.15;;;1.50;;
59974;SDS011;62136;-35.664;-63.766;2024-02-04T10:18:47;5.05;;;1.48;;
59974;SDS011;62136;-35.664;-63.766;2024-02-04T10:21:18;6.75;;;1.58;;
59974;SDS011;62136;-35.664;-63.766;2024-02-04T10:23:47;9.40;;;1.90;;
59974;SDS011;62136;-35.664;-63.766;2024-02-04T10:26:14;6.35;;;1.88;;
59974;SDS011;62136;-35.664;-63.766;2024-02-04T10:28:42;4.53;;;1.60;;
59974;SDS011;62136;-35.664;-63.766;2024-02-04T10:31:12;3.50;;;1.40;;
59974;SDS011;62136;-35.664;-63.766;2024-02-04T10:33:39;6.90;;;1.80;;
59974;SDS011;62136;-35.664;-63.766;2024-02-04T10:36:06;5.55;;;1.55;;
59974;SDS011;62136;-35.664;-63.766;2024-02-04T10:38:33;3.72;;;1.40;;
59974;SDS011;62136;-35.664;-63.766;2024-02-04T10:41:01;4.25;;;1.55;;
59974;SDS011;62136;-35.664;-63.766;2024-02-04T10:43:32;5.57;;;1.98;;
59974;SDS011;62136;-35.664;-63.766;2024-02-04T10:46:10;6.03;;;1.60;;
59974;SDS011;62136;-35.664;-63.766;2024-02-04T10:48:42;5.35;;;1.70;;
59974;SDS011;62136;-35.664;-63.766;2024-02-04T10:51:15;6.53;;;1.60;;
59974;SDS011;62136;-35.664;-63.766;2024-02-04T10:53:44;3.80;;;1.40;;
59974;SDS011;62136;-35.664;-63.766;2024-02-04T10:58:47;3.47;;;1.40;;
59974;SDS011;62136;-35.664;-63.766;2024-02-04T11:01:16;6.57;;;1.48;;
59974;SDS011;62136;-35.664;-63.766;2024-02-04T11:03:44;5.95;;;1.70;;
59974;SDS011;62136;-35.664;-63.766;2024-02-04T11:06:12;5.40;;;1.45;;
59974;SDS011;62136;-35.664;-63.766;2024-02-04T11:08:40;4.03;;;1.73;;
59974;SDS011;62136;-35.664;-63.766;2024-02-04T11:11:09;6.05;;;1.83;;
59974;SDS011;62136;-35.664;-63.766;2024-02-04T11:13:36;6.88;;;1.67;;
59974;SDS011;62136;-35.664;-63.766;2024-02-04T11:16:06;5.88;;;1.38;;
59974;SDS011;62136;-35.664;-63.766;2024-02-04T11:21:42;5.45;;;1.90;;
59974;SDS011;62136;-35.664;-63.766;2024-02-04T11:24:27;3.67;;;1.40;;
59974;SDS011;62136;-35.664;-63.766;2024-02-04T11:27:06;3.50;;;1.73;;
59974;SDS011;62136;-35.664;-63.766;2024-02-04T11:29:34;6.05;;;1.42;;
59974;SDS011;62136;-35.664;-63.766;2024-02-04T11:32:01;4.32;;;1.55;;
59974;SDS011;62136;-35.664;-63.766;2024-02-04T11:34:28;5.88;;;1.83;;
59974;SDS011;62136;-35.664;-63.766;2024-02-04T11:36:56;6.80;;;1.75;;
59974;SDS011;62136;-35.664;-63.766;2024-02-04T11:39:24;5.00;;;1.35;;
59974;SDS011;62136;-35.664;-63.766;2024-02-04T11:41:52;5.35;;;1.55;;
59974;SDS011;62136;-35.664;-63.766;2024-02-04T11:44:20;2.90;;;1.20;;
59974;SDS011;62136;-35.664;-63.766;2024-02-04T11:46:48;4.97;;;1.40;;
59974;SDS011;62136;-35.664;-63.766;2024-02-04T11:49:16;3.38;;;1.35;;
59974;SDS011;62136;-35.664;-63.766;2024-02-04T11:51:53;6.60;;;1.40;;
59974;SDS011;62136;-35.664;-63.766;2024-02-04T11:54:20;4.38;;;1.52;;
59974;SDS011;62136;-35.664;-63.766;2024-02-04T11:56:51;4.50;;;1.65;;
59974;SDS011;62136;-35.664;-63.766;2024-02-04T11:59:29;5.22;;;1.52;;
59974;SDS011;62136;-35.664;-63.766;2024-02-04T12:01:57;3.22;;;1.13;;
59974;SDS011;62136;-35.664;-63.766;2024-02-04T12:04:31;4.63;;;1.13;;
59974;SDS011;62136;-35.664;-63.766;2024-02-04T12:06:58;5.93;;;1.90;;
59974;SDS011;62136;-35.664;-63.766;2024-02-04T12:09:26;5.85;;;1.65;;
59974;SDS011;62136;-35.664;-63.766;2024-02-04T12:11:54;5.95;;;2.05;;
59974;SDS011;62136;-35.664;-63.766;2024-02-04T12:14:21;4.00;;;1.42;;
59974;SDS011;62136;-35.664;-63.766;2024-02-04T12:16:49;4.63;;;1.40;;
59974;SDS011;62136;-35.664;-63.766;2024-02-04T12:19:15;4.43;;;1.38;;
59974;SDS011;62136;-35.664;-63.766;2024-02-04T12:21:43;3.28;;;1.23;;
59974;SDS011;62136;-35.664;-63.766;2024-02-04T12:24:10;4.85;;;1.27;;
59974;SDS011;62136;-35.664;-63.766;2024-02-04T12:26:37;4.80;;;1.40;;
59974;SDS011;62136;-35.664;-63.766;2024-02-04T12:29:05;3.65;;;1.48;;
59974;SDS011;62136;-35.664;-63.766;2024-02-04T12:31:32;4.45;;;1.55;;
59974;SDS011;62136;-35.664;-63.766;2024-02-04T12:33:59;3.50;;;1.25;;
59974;SDS011;62136;-35.664;-63.766;2024-02-04T12:36:30;4.88;;;1.35;;
59974;SDS011;62136;-35.664;-63.766;2024-02-04T12:38:59;6.03;;;1.90;;
59974;SDS011;62136;-35.664;-63.766;2024-02-04T12:41:27;4.10;;;1.35;;
59974;SDS011;62136;-35.664;-63.766;2024-02-04T12:43:59;5.47;;;1.40;;
59974;SDS011;62136;-35.664;-63.766;2024-02-04T12:46:27;6.65;;;1.40;;
59974;SDS011;62136;-35.664;-63.766;2024-02-04T12:48:55;3.33;;;1.23;;
59974;SDS011;62136;-35.664;-63.766;2024-02-04T12:51:24;4.70;;;1.35;;
59974;SDS011;62136;-35.664;-63.766;2024-02-04T12:54:07;6.47;;;1.30;;
59974;SDS011;62136;-35.664;-63.766;2024-02-04T12:56:48;6.88;;;2.00;;
59974;SDS011;62136;-35.664;-63.766;2024-02-04T12:59:29;4.35;;;1.38;;
59974;SDS011;62136;-35.664;-63.766;2024-02-04T13:02:01;5.85;;;1.38;;
59974;SDS011;62136;-35.664;-63.766;2024-02-04T13:04:40;3.65;;;1.52;;
59974;SDS011;62136;-35.664;-63.766;2024-02-04T13:07:12;2.70;;;1.27;;
59974;SDS011;62136;-35.664;-63.766;2024-02-04T13:09:42;3.63;;;1.35;;
59974;SDS011;62136;-35.664;-63.766;2024-02-04T13:12:10;5.05;;;1.15;;
59974;SDS011;62136;-35.664;-63.766;2024-02-04T13:14:41;4.80;;;1.80;;
59974;SDS011;62136;-35.664;-63.766;2024-02-04T13:17:10;5.57;;;1.70;;
59974;SDS011;62136;-35.664;-63.766;2024-02-04T13:19:37;4.53;;;1.60;;
59974;SDS011;62136;-35.664;-63.766;2024-02-04T13:22:05;5.90;;;1.80;;
59974;SDS011;62136;-35.664;-63.766;2024-02-04T13:24:35;4.45;;;1.50;;
59974;SDS011;62136;-35.664;-63.766;2024-02-04T13:27:03;5.00;;;1.48;;
59974;SDS011;62136;-35.664;-63.766;2024-02-04T13:29:31;6.80;;;1.70;;
59974;SDS011;62136;-35.664;-63.766;2024-02-04T13:31:58;3.80;;;1.55;;
59974;SDS011;62136;-35.664;-63.766;2024-02-04T13:34:25;4.05;;;1.38;;
59974;SDS011;62136;-35.664;-63.766;2024-02-04T13:36:52;5.45;;;1.50;;
59974;SDS011;62136;-35.664;-63.766;2024-02-04T13:39:19;4.00;;;1.40;;
59974;SDS011;62136;-35.664;-63.766;2024-02-04T13:41:46;5.07;;;1.30;;
59974;SDS011;62136;-35.664;-63.766;2024-02-04T13:44:13;3.50;;;1.33;;
59974;SDS011;62136;-35.664;-63.766;2024-02-04T13:46:40;5.18;;;1.40;;
59974;SDS011;62136;-35.664;-63.766;2024-02-04T13:49:09;4.05;;;1.27;;
59974;SDS011;62136;-35.664;-63.766;2024-02-04T13:51:37;4.97;;;1.30;;
59974;SDS011;62136;-35.664;-63.766;2024-02-04T13:54:04;6.93;;;1.65;;
59974;SDS011;62136;-35.664;-63.766;2024-02-04T13:56:31;7.00;;;1.65;;
59974;SDS011;62136;-35.664;-63.766;2024-02-04T13:58:58;3.53;;;1.33;;
59974;SDS011;62136;-35.664;-63.766;2024-02-04T14:01:25;6.10;;;1.60;;
59974;SDS011;62136;-35.664;-63.766;2024-02-04T14:03:52;5.72;;;1.40;;
59974;SDS011;62136;-35.664;-63.766;2024-02-04T14:06:19;3.95;;;1.40;;
59974;SDS011;62136;-35.664;-63.766;2024-02-04T14:08:46;3.40;;;1.33;;
59974;SDS011;62136;-35.664;-63.766;2024-02-04T14:11:16;4.05;;;1.58;;
59974;SDS011;62136;-35.664;-63.766;2024-02-04T14:13:44;5.55;;;1.27;;
59974;SDS011;62136;-35.664;-63.766;2024-02-04T14:16:11;2.60;;;1.02;;
59974;SDS011;62136;-35.664;-63.766;2024-02-04T14:18:37;4.05;;;1.65;;
59974;SDS011;62136;-35.664;-63.766;2024-02-04T14:21:06;4.32;;;1.45;;
59974;SDS011;62136;-35.664;-63.766;2024-02-04T14:23:35;4.25;;;1.40;;
59974;SDS011;62136;-35.664;-63.766;2024-02-04T14:26:02;4.80;;;1.50;;